Weather at Lukla Airport

Public forecast

Using degrees Celsius for public forecast. Weather courtesy of forecast.io.

Closest aviation weather report (METAR) to Lukla Airport

Closest report is Tribhuvan International Airport, 72.9 nm (135.0 km) W. Retrieved 2022/01/17 10:20 UTC (15 minutes ago):

VNKT 171020Z 28008KT 7000 FEW015 SCT030 BKN100 15/06 Q1021 NOSIG

Closest aviation forecast (TAF) to Lukla Airport

Closest forecast is Tribhuvan International Airport, 72.9 nm (135.0 km) W. Retrieved 2022/01/17 06:00 UTC (5 hours ago):

TAF VNKT 170500Z 1706/1806 20005KT 4000 HZ FEW015 SCT200 BECMG 1707/1708 7000 FEW020 SCT200 PROB30 1707/1712 6000 FEW020 SCT030 BKN100 BECMG 1714/1715 12003KT 6000 FEW015 SCT100 BECMG 1800/1803 VRB02KT 3000 BR FEW010 SCT030 PROB40 1801/1803 1000 BR BECMG 1804/1805 15003KT 4000 HZ FEW015